sensor_id;sensor_type;location;lat;lon;timestamp;P1;durP1;ratioP1;P2;durP2;ratioP2
5414;SDS011;2730;51.512;7.504;2024-01-30T00:01:35;9.23;;;4.68;;
5414;SDS011;2730;51.512;7.504;2024-01-30T00:04:02;7.43;;;4.50;;
5414;SDS011;2730;51.512;7.504;2024-01-30T00:06:32;9.32;;;4.95;;
5414;SDS011;2730;51.512;7.504;2024-01-30T00:09:00;5.45;;;4.13;;
5414;SDS011;2730;51.512;7.504;2024-01-30T00:11:27;7.78;;;4.60;;
5414;SDS011;2730;51.512;7.504;2024-01-30T00:13:55;8.95;;;4.97;;
5414;SDS011;2730;51.512;7.504;2024-01-30T00:16:23;8.65;;;5.15;;
5414;SDS011;2730;51.512;7.504;2024-01-30T00:18:50;7.55;;;5.15;;
5414;SDS011;2730;51.512;7.504;2024-01-30T00:21:17;13.45;;;5.15;;
5414;SDS011;2730;51.512;7.504;2024-01-30T00:23:44;6.82;;;4.82;;
5414;SDS011;2730;51.512;7.504;2024-01-30T00:26:11;8.18;;;5.20;;
5414;SDS011;2730;51.512;7.504;2024-01-30T00:28:37;10.35;;;5.55;;
5414;SDS011;2730;51.512;7.504;2024-01-30T00:31:06;8.70;;;5.00;;
5414;SDS011;2730;51.512;7.504;2024-01-30T00:33:34;12.68;;;5.65;;
5414;SDS011;2730;51.512;7.504;2024-01-30T00:36:00;9.10;;;6.00;;
5414;SDS011;2730;51.512;7.504;2024-01-30T00:38:27;6.70;;;5.50;;
5414;SDS011;2730;51.512;7.504;2024-01-30T00:40:54;11.00;;;6.05;;
5414;SDS011;2730;51.512;7.504;2024-01-30T00:43:21;6.45;;;4.65;;
5414;SDS011;2730;51.512;7.504;2024-01-30T00:45:49;6.70;;;4.75;;
5414;SDS011;2730;51.512;7.504;2024-01-30T00:48:19;8.18;;;5.13;;
5414;SDS011;2730;51.512;7.504;2024-01-30T00:50:46;7.45;;;4.55;;
5414;SDS011;2730;51.512;7.504;2024-01-30T00:53:14;7.25;;;5.07;;
5414;SDS011;2730;51.512;7.504;2024-01-30T00:55:41;9.45;;;6.18;;
5414;SDS011;2730;51.512;7.504;2024-01-30T00:58:08;10.98;;;6.03;;
5414;SDS011;2730;51.512;7.504;2024-01-30T01:00:35;12.35;;;5.70;;
5414;SDS011;2730;51.512;7.504;2024-01-30T01:03:02;7.57;;;4.70;;
5414;SDS011;2730;51.512;7.504;2024-01-30T01:05:31;7.25;;;4.45;;
5414;SDS011;2730;51.512;7.504;2024-01-30T01:07:57;7.15;;;4.40;;
5414;SDS011;2730;51.512;7.504;2024-01-30T01:10:24;8.75;;;4.68;;
5414;SDS011;2730;51.512;7.504;2024-01-30T01:12:52;6.82;;;4.57;;
5414;SDS011;2730;51.512;7.504;2024-01-30T01:15:19;11.45;;;5.78;;
5414;SDS011;2730;51.512;7.504;2024-01-30T01:17:46;7.63;;;5.13;;
5414;SDS011;2730;51.512;7.504;2024-01-30T01:20:12;11.45;;;6.00;;
5414;SDS011;2730;51.512;7.504;2024-01-30T01:22:40;13.35;;;6.60;;
5414;SDS011;2730;51.512;7.504;2024-01-30T01:25:10;9.82;;;5.03;;
5414;SDS011;2730;51.512;7.504;2024-01-30T01:27:37;7.20;;;4.95;;
5414;SDS011;2730;51.512;7.504;2024-01-30T01:30:07;8.65;;;4.90;;
5414;SDS011;2730;51.512;7.504;2024-01-30T01:32:35;8.13;;;4.65;;
5414;SDS011;2730;51.512;7.504;2024-01-30T01:35:03;10.25;;;5.15;;
5414;SDS011;2730;51.512;7.504;2024-01-30T01:37:45;8.95;;;5.10;;
5414;SDS011;2730;51.512;7.504;2024-01-30T01:40:11;9.50;;;6.00;;
5414;SDS011;2730;51.512;7.504;2024-01-30T01:42:42;11.05;;;5.70;;
5414;SDS011;2730;51.512;7.504;2024-01-30T01:45:09;11.23;;;4.93;;
5414;SDS011;2730;51.512;7.504;2024-01-30T01:47:35;10.05;;;5.20;;
5414;SDS011;2730;51.512;7.504;2024-01-30T01:50:03;10.55;;;5.25;;
5414;SDS011;2730;51.512;7.504;2024-01-30T01:52:30;7.75;;;5.20;;
5414;SDS011;2730;51.512;7.504;2024-01-30T01:54:59;9.20;;;5.45;;
5414;SDS011;2730;51.512;7.504;2024-01-30T01:57:26;8.43;;;4.85;;
5414;SDS011;2730;51.512;7.504;2024-01-30T01:59:53;6.82;;;4.93;;
5414;SDS011;2730;51.512;7.504;2024-01-30T02:02:20;11.90;;;6.03;;
5414;SDS011;2730;51.512;7.504;2024-01-30T02:04:49;11.45;;;5.40;;
5414;SDS011;2730;51.512;7.504;2024-01-30T02:07:16;10.93;;;6.30;;
5414;SDS011;2730;51.512;7.504;2024-01-30T02:09:43;10.63;;;5.40;;
5414;SDS011;2730;51.512;7.504;2024-01-30T02:12:12;12.57;;;5.65;;
5414;SDS011;2730;51.512;7.504;2024-01-30T02:14:44;8.38;;;4.85;;
5414;SDS011;2730;51.512;7.504;2024-01-30T02:17:11;10.70;;;5.70;;
5414;SDS011;2730;51.512;7.504;2024-01-30T02:19:41;6.45;;;5.00;;
5414;SDS011;2730;51.512;7.504;2024-01-30T02:22:09;7.88;;;5.60;;
5414;SDS011;2730;51.512;7.504;2024-01-30T02:24:36;9.95;;;5.43;;
5414;SDS011;2730;51.512;7.504;2024-01-30T02:27:03;8.10;;;4.90;;
5414;SDS011;2730;51.512;7.504;2024-01-30T02:29:30;12.48;;;4.90;;
5414;SDS011;2730;51.512;7.504;2024-01-30T02:32:00;9.85;;;5.25;;
5414;SDS011;2730;51.512;7.504;2024-01-30T02:34:27;13.73;;;4.93;;
5414;SDS011;2730;51.512;7.504;2024-01-30T02:36:54;13.48;;;5.20;;
5414;SDS011;2730;51.512;7.504;2024-01-30T02:39:22;10.48;;;5.78;;
5414;SDS011;2730;51.512;7.504;2024-01-30T02:41:49;13.88;;;4.60;;
5414;SDS011;2730;51.512;7.504;2024-01-30T02:44:15;6.65;;;4.72;;
5414;SDS011;2730;51.512;7.504;2024-01-30T02:46:44;7.28;;;4.80;;
5414;SDS011;2730;51.512;7.504;2024-01-30T02:49:11;17.17;;;5.30;;
5414;SDS011;2730;51.512;7.504;2024-01-30T02:51:40;9.68;;;4.70;;
5414;SDS011;2730;51.512;7.504;2024-01-30T02:54:07;10.43;;;5.45;;
5414;SDS011;2730;51.512;7.504;2024-01-30T02:56:35;12.07;;;5.35;;
5414;SDS011;2730;51.512;7.504;2024-01-30T02:59:02;10.43;;;5.45;;
5414;SDS011;2730;51.512;7.504;2024-01-30T03:01:31;15.43;;;5.25;;
5414;SDS011;2730;51.512;7.504;2024-01-30T03:03:58;5.72;;;4.78;;
5414;SDS011;2730;51.512;7.504;2024-01-30T03:06:25;8.90;;;5.43;;
5414;SDS011;2730;51.512;7.504;2024-01-30T03:08:51;6.53;;;4.65;;
5414;SDS011;2730;51.512;7.504;2024-01-30T03:11:18;12.23;;;4.85;;
5414;SDS011;2730;51.512;7.504;2024-01-30T03:13:47;14.20;;;5.85;;
5414;SDS011;2730;51.512;7.504;2024-01-30T03:16:15;10.80;;;5.00;;
5414;SDS011;2730;51.512;7.504;2024-01-30T03:18:42;11.15;;;5.13;;
5414;SDS011;2730;51.512;7.504;2024-01-30T03:21:10;11.05;;;5.78;;
5414;SDS011;2730;51.512;7.504;2024-01-30T03:23:37;5.53;;;4.72;;
5414;SDS011;2730;51.512;7.504;2024-01-30T03:26:04;6.25;;;4.80;;
5414;SDS011;2730;51.512;7.504;2024-01-30T03:28:31;9.45;;;4.93;;
5414;SDS011;2730;51.512;7.504;2024-01-30T03:30:59;8.45;;;4.70;;
5414;SDS011;2730;51.512;7.504;2024-01-30T03:33:27;7.80;;;4.72;;
5414;SDS011;2730;51.512;7.504;2024-01-30T03:35:53;7.32;;;4.70;;
5414;SDS011;2730;51.512;7.504;2024-01-30T03:38:20;9.50;;;5.70;;
5414;SDS011;2730;51.512;7.504;2024-01-30T03:40:47;5.65;;;3.85;;
5414;SDS011;2730;51.512;7.504;2024-01-30T03:43:13;9.45;;;5.38;;
5414;SDS011;2730;51.512;7.504;2024-01-30T03:45:42;8.07;;;4.43;;
5414;SDS011;2730;51.512;7.504;2024-01-30T03:48:12;7.00;;;4.75;;
5414;SDS011;2730;51.512;7.504;2024-01-30T03:50:39;5.35;;;3.47;;
5414;SDS011;2730;51.512;7.504;2024-01-30T03:53:06;5.90;;;4.30;;
5414;SDS011;2730;51.512;7.504;2024-01-30T03:55:32;5.18;;;4.07;;
5414;SDS011;2730;51.512;7.504;2024-01-30T03:58:00;11.10;;;5.25;;
5414;SDS011;2730;51.512;7.504;2024-01-30T04:00:26;7.90;;;5.05;;
5414;SDS011;2730;51.512;7.504;2024-01-30T04:02:56;10.20;;;4.93;;
5414;SDS011;2730;51.512;7.504;2024-01-30T04:05:24;7.32;;;4.00;;
5414;SDS011;2730;51.512;7.504;2024-01-30T04:07:51;11.10;;;4.50;;
5414;SDS011;2730;51.512;7.504;2024-01-30T04:10:18;7.57;;;4.55;;
5414;SDS011;2730;51.512;7.504;2024-01-30T04:12:45;8.25;;;4.25;;
5414;SDS011;2730;51.512;7.504;2024-01-30T04:15:12;12.23;;;4.90;;
5414;SDS011;2730;51.512;7.504;2024-01-30T04:17:41;6.35;;;4.03;;
5414;SDS011;2730;51.512;7.504;2024-01-30T04:20:11;9.35;;;4.55;;
5414;SDS011;2730;51.512;7.504;2024-01-30T04:22:41;10.88;;;4.10;;
5414;SDS011;2730;51.512;7.504;2024-01-30T04:25:08;9.35;;;5.22;;
5414;SDS011;2730;51.512;7.504;2024-01-30T04:27:34;13.05;;;4.68;;
5414;SDS011;2730;51.512;7.504;2024-01-30T04:30:01;5.72;;;3.90;;
5414;SDS011;2730;51.512;7.504;2024-01-30T04:32:28;9.48;;;4.30;;
5414;SDS011;2730;51.512;7.504;2024-01-30T04:34:56;7.45;;;4.47;;
5414;SDS011;2730;51.512;7.504;2024-01-30T04:37:24;3.83;;;3.53;;
5414;SDS011;2730;51.512;7.504;2024-01-30T04:39:54;5.78;;;4.22;;
5414;SDS011;2730;51.512;7.504;2024-01-30T04:42:22;6.65;;;3.95;;
5414;SDS011;2730;51.512;7.504;2024-01-30T04:44:50;14.25;;;4.07;;
5414;SDS011;2730;51.512;7.504;2024-01-30T04:47:19;11.48;;;4.55;;
5414;SDS011;2730;51.512;7.504;2024-01-30T04:49:47;6.65;;;4.13;;
5414;SDS011;2730;51.512;7.504;2024-01-30T04:52:15;6.85;;;4.22;;
5414;SDS011;2730;51.512;7.504;2024-01-30T04:54:42;8.48;;;4.57;;
5414;SDS011;2730;51.512;7.504;2024-01-30T04:57:11;7.50;;;4.68;;
5414;SDS011;2730;51.512;7.504;2024-01-30T04:59:38;4.22;;;3.80;;
5414;SDS011;2730;51.512;7.504;2024-01-30T05:02:04;6.90;;;4.55;;
5414;SDS011;2730;51.512;7.504;2024-01-30T05:04:33;6.82;;;4.22;;
5414;SDS011;2730;51.512;7.504;2024-01-30T05:07:00;7.60;;;4.57;;
5414;SDS011;2730;51.512;7.504;2024-01-30T05:09:27;13.82;;;5.47;;
5414;SDS011;2730;51.512;7.504;2024-01-30T05:11:54;9.88;;;5.10;;
5414;SDS011;2730;51.512;7.504;2024-01-30T05:14:24;8.15;;;3.85;;
5414;SDS011;2730;51.512;7.504;2024-01-30T05:16:52;8.32;;;4.75;;
5414;SDS011;2730;51.512;7.504;2024-01-30T05:19:19;9.02;;;4.38;;
5414;SDS011;2730;51.512;7.504;2024-01-30T05:21:48;10.13;;;5.95;;
5414;SDS011;2730;51.512;7.504;2024-01-30T05:24:15;9.10;;;6.18;;
5414;SDS011;2730;51.512;7.504;2024-01-30T05:26:41;10.52;;;6.80;;
5414;SDS011;2730;51.512;7.504;2024-01-30T05:29:08;9.43;;;6.43;;
5414;SDS011;2730;51.512;7.504;2024-01-30T05:31:36;12.40;;;4.97;;
5414;SDS011;2730;51.512;7.504;2024-01-30T05:34:03;8.55;;;5.13;;
5414;SDS011;2730;51.512;7.504;2024-01-30T05:36:31;5.65;;;4.22;;
5414;SDS011;2730;51.512;7.504;2024-01-30T05:38:59;13.43;;;5.15;;
5414;SDS011;2730;51.512;7.504;2024-01-30T05:41:26;10.68;;;6.45;;
5414;SDS011;2730;51.512;7.504;2024-01-30T05:43:53;7.10;;;4.07;;
5414;SDS011;2730;51.512;7.504;2024-01-30T05:46:19;8.75;;;4.85;;
5414;SDS011;2730;51.512;7.504;2024-01-30T05:48:48;10.30;;;5.07;;
5414;SDS011;2730;51.512;7.504;2024-01-30T05:51:15;8.35;;;4.18;;
5414;SDS011;2730;51.512;7.504;2024-01-30T05:53:42;12.50;;;3.97;;
5414;SDS011;2730;51.512;7.504;2024-01-30T05:56:10;8.13;;;4.30;;
5414;SDS011;2730;51.512;7.504;2024-01-30T05:58:36;7.85;;;5.30;;
5414;SDS011;2730;51.512;7.504;2024-01-30T06:01:05;5.70;;;3.70;;
5414;SDS011;2730;51.512;7.504;2024-01-30T06:03:33;10.02;;;5.38;;
5414;SDS011;2730;51.512;7.504;2024-01-30T06:06:03;9.48;;;5.22;;
5414;SDS011;2730;51.512;7.504;2024-01-30T06:08:29;6.65;;;4.80;;
5414;SDS011;2730;51.512;7.504;2024-01-30T06:10:56;18.55;;;4.70;;
5414;SDS011;2730;51.512;7.504;2024-01-30T06:13:23;8.77;;;4.15;;
5414;SDS011;2730;51.512;7.504;2024-01-30T06:15:49;8.00;;;4.43;;
5414;SDS011;2730;51.512;7.504;2024-01-30T06:18:16;9.65;;;4.90;;
5414;SDS011;2730;51.512;7.504;2024-01-30T06:20:43;8.82;;;4.80;;
5414;SDS011;2730;51.512;7.504;2024-01-30T06:23:11;6.65;;;4.38;;
5414;SDS011;2730;51.512;7.504;2024-01-30T06:25:39;10.48;;;6.15;;
5414;SDS011;2730;51.512;7.504;2024-01-30T06:28:07;6.93;;;4.90;;
5414;SDS011;2730;51.512;7.504;2024-01-30T06:30:33;9.65;;;4.93;;
5414;SDS011;2730;51.512;7.504;2024-01-30T06:33:03;6.10;;;3.75;;
5414;SDS011;2730;51.512;7.504;2024-01-30T06:35:32;13.73;;;4.30;;
5414;SDS011;2730;51.512;7.504;2024-01-30T06:38:00;11.65;;;4.60;;
5414;SDS011;2730;51.512;7.504;2024-01-30T06:40:28;7.30;;;4.90;;
5414;SDS011;2730;51.512;7.504;2024-01-30T06:42:57;9.63;;;5.05;;
5414;SDS011;2730;51.512;7.504;2024-01-30T06:45:24;4.90;;;3.65;;
5414;SDS011;2730;51.512;7.504;2024-01-30T06:47:53;8.48;;;4.85;;
5414;SDS011;2730;51.512;7.504;2024-01-30T06:50:20;8.27;;;4.20;;
5414;SDS011;2730;51.512;7.504;2024-01-30T06:52:47;5.13;;;4.63;;
5414;SDS011;2730;51.512;7.504;2024-01-30T06:55:14;5.82;;;4.75;;
5414;SDS011;2730;51.512;7.504;2024-01-30T06:57:42;8.73;;;5.03;;
5414;SDS011;2730;51.512;7.504;2024-01-30T07:00:09;6.45;;;4.00;;
5414;SDS011;2730;51.512;7.504;2024-01-30T07:02:38;5.03;;;3.45;;
5414;SDS011;2730;51.512;7.504;2024-01-30T07:05:05;9.32;;;5.10;;
5414;SDS011;2730;51.512;7.504;2024-01-30T07:07:33;8.73;;;3.60;;
5414;SDS011;2730;51.512;7.504;2024-01-30T07:10:00;7.78;;;5.32;;
5414;SDS011;2730;51.512;7.504;2024-01-30T07:12:27;8.95;;;4.05;;
5414;SDS011;2730;51.512;7.504;2024-01-30T07:14:55;8.00;;;5.00;;
5414;SDS011;2730;51.512;7.504;2024-01-30T07:17:24;6.57;;;4.63;;
5414;SDS011;2730;51.512;7.504;2024-01-30T07:19:59;4.88;;;4.07;;
5414;SDS011;2730;51.512;7.504;2024-01-30T07:22:28;5.00;;;3.83;;
5414;SDS011;2730;51.512;7.504;2024-01-30T07:24:56;7.10;;;4.50;;
5414;SDS011;2730;51.512;7.504;2024-01-30T07:27:23;6.60;;;4.47;;
5414;SDS011;2730;51.512;7.504;2024-01-30T07:29:50;7.18;;;4.35;;
5414;SDS011;2730;51.512;7.504;2024-01-30T07:32:18;10.40;;;4.90;;
5414;SDS011;2730;51.512;7.504;2024-01-30T07:34:45;7.63;;;4.55;;
5414;SDS011;2730;51.512;7.504;2024-01-30T07:37:12;7.60;;;4.22;;
5414;SDS011;2730;51.512;7.504;2024-01-30T07:39:40;5.55;;;4.45;;
5414;SDS011;2730;51.512;7.504;2024-01-30T07:42:08;8.38;;;5.03;;
5414;SDS011;2730;51.512;7.504;2024-01-30T07:44:35;12.93;;;4.25;;
5414;SDS011;2730;51.512;7.504;2024-01-30T07:47:02;9.93;;;4.50;;
5414;SDS011;2730;51.512;7.504;2024-01-30T07:49:31;6.70;;;4.30;;
5414;SDS011;2730;51.512;7.504;2024-01-30T07:52:00;7.03;;;4.30;;
5414;SDS011;2730;51.512;7.504;2024-01-30T07:54:30;9.25;;;4.75;;
5414;SDS011;2730;51.512;7.504;2024-01-30T08:03:42;5.57;;;4.40;;
5414;SDS011;2730;51.512;7.504;2024-01-30T08:06:10;11.70;;;5.07;;
5414;SDS011;2730;51.512;7.504;2024-01-30T08:08:37;7.35;;;3.97;;
5414;SDS011;2730;51.512;7.504;2024-01-30T08:11:04;8.75;;;5.05;;
5414;SDS011;2730;51.512;7.504;2024-01-30T08:13:32;7.40;;;4.32;;
5414;SDS011;2730;51.512;7.504;2024-01-30T08:15:59;6.00;;;4.38;;
5414;SDS011;2730;51.512;7.504;2024-01-30T08:18:26;12.27;;;5.47;;
5414;SDS011;2730;51.512;7.504;2024-01-30T08:20:52;10.20;;;4.15;;
5414;SDS011;2730;51.512;7.504;2024-01-30T08:23:21;9.80;;;4.30;;
5414;SDS011;2730;51.512;7.504;2024-01-30T08:25:47;6.28;;;3.92;;
5414;SDS011;2730;51.512;7.504;2024-01-30T08:28:14;5.70;;;4.22;;
5414;SDS011;2730;51.512;7.504;2024-01-30T08:30:42;27.80;;;4.72;;
5414;SDS011;2730;51.512;7.504;2024-01-30T08:33:08;5.88;;;4.00;;
5414;SDS011;2730;51.512;7.504;2024-01-30T08:35:38;5.53;;;4.35;;
5414;SDS011;2730;51.512;7.504;2024-01-30T08:38:05;8.70;;;3.90;;
5414;SDS011;2730;51.512;7.504;2024-01-30T08:40:33;9.43;;;4.05;;
5414;SDS011;2730;51.512;7.504;2024-01-30T08:43:00;4.88;;;3.83;;
5414;SDS011;2730;51.512;7.504;2024-01-30T08:45:29;8.50;;;3.80;;
5414;SDS011;2730;51.512;7.504;2024-01-30T08:47:57;6.80;;;3.97;;
5414;SDS011;2730;51.512;7.504;2024-01-30T08:50:23;3.90;;;3.50;;
5414;SDS011;2730;51.512;7.504;2024-01-30T08:52:50;10.07;;;3.72;;
5414;SDS011;2730;51.512;7.504;2024-01-30T08:55:17;6.00;;;3.88;;
5414;SDS011;2730;51.512;7.504;2024-01-30T08:57:45;3.95;;;3.38;;
5414;SDS011;2730;51.512;7.504;2024-01-30T09:00:14;8.68;;;3.55;;
5414;SDS011;2730;51.512;7.504;2024-01-30T09:02:46;5.43;;;3.75;;
5414;SDS011;2730;51.512;7.504;2024-01-30T09:05:13;4.97;;;3.22;;
5414;SDS011;2730;51.512;7.504;2024-01-30T09:07:40;5.03;;;3.88;;
5414;SDS011;2730;51.512;7.504;2024-01-30T09:10:07;4.60;;;3.40;;
5414;SDS011;2730;51.512;7.504;2024-01-30T09:12:34;5.57;;;3.15;;
5414;SDS011;2730;51.512;7.504;2024-01-30T09:15:04;3.92;;;3.53;;
5414;SDS011;2730;51.512;7.504;2024-01-30T09:17:31;4.82;;;3.10;;
5414;SDS011;2730;51.512;7.504;2024-01-30T09:20:00;4.68;;;3.08;;
5414;SDS011;2730;51.512;7.504;2024-01-30T09:22:28;7.55;;;3.55;;
5414;SDS011;2730;51.512;7.504;2024-01-30T09:24:56;3.88;;;2.85;;
5414;SDS011;2730;51.512;7.504;2024-01-30T09:27:25;4.30;;;3.30;;
5414;SDS011;2730;51.512;7.504;2024-01-30T09:29:55;5.15;;;2.92;;
5414;SDS011;2730;51.512;7.504;2024-01-30T09:32:23;5.20;;;2.97;;
5414;SDS011;2730;51.512;7.504;2024-01-30T09:34:50;5.70;;;2.90;;
5414;SDS011;2730;51.512;7.504;2024-01-30T09:37:18;3.78;;;2.97;;
5414;SDS011;2730;51.512;7.504;2024-01-30T09:39:45;3.42;;;2.95;;
5414;SDS011;2730;51.512;7.504;2024-01-30T09:42:15;3.55;;;3.15;;
5414;SDS011;2730;51.512;7.504;2024-01-30T09:45:00;7.40;;;3.63;;
5414;SDS011;2730;51.512;7.504;2024-01-30T09:47:32;3.42;;;2.90;;
5414;SDS011;2730;51.512;7.504;2024-01-30T09:50:07;3.67;;;3.05;;
5414;SDS011;2730;51.512;7.504;2024-01-30T09:52:35;3.13;;;2.50;;
5414;SDS011;2730;51.512;7.504;2024-01-30T09:55:02;12.60;;;3.10;;
5414;SDS011;2730;51.512;7.504;2024-01-30T09:57:29;6.13;;;3.22;;
5414;SDS011;2730;51.512;7.504;2024-01-30T09:59:56;5.70;;;3.20;;
5414;SDS011;2730;51.512;7.504;2024-01-30T10:02:23;3.30;;;2.58;;
5414;SDS011;2730;51.512;7.504;2024-01-30T10:04:51;4.70;;;3.25;;
5414;SDS011;2730;51.512;7.504;2024-01-30T10:07:18;4.55;;;2.83;;
5414;SDS011;2730;51.512;7.504;2024-01-30T10:09:46;2.97;;;2.70;;
5414;SDS011;2730;51.512;7.504;2024-01-30T10:12:14;5.18;;;2.65;;
5414;SDS011;2730;51.512;7.504;2024-01-30T10:14:41;3.58;;;2.65;;
5414;SDS011;2730;51.512;7.504;2024-01-30T10:17:09;4.35;;;3.83;;
5414;SDS011;2730;51.512;7.504;2024-01-30T10:19:37;2.90;;;2.70;;
5414;SDS011;2730;51.512;7.504;2024-01-30T10:22:06;3.60;;;3.20;;
5414;SDS011;2730;51.512;7.504;2024-01-30T10:24:33;6.18;;;3.13;;
5414;SDS011;2730;51.512;7.504;2024-01-30T10:27:00;8.68;;;3.15;;
5414;SDS011;2730;51.512;7.504;2024-01-30T10:29:27;5.00;;;2.97;;
5414;SDS011;2730;51.512;7.504;2024-01-30T10:31:58;3.22;;;2.92;;
5414;SDS011;2730;51.512;7.504;2024-01-30T10:34:25;6.82;;;3.55;;
5414;SDS011;2730;51.512;7.504;2024-01-30T10:36:55;7.20;;;3.15;;
5414;SDS011;2730;51.512;7.504;2024-01-30T10:39:30;5.28;;;3.40;;
5414;SDS011;2730;51.512;7.504;2024-01-30T10:42:03;3.47;;;3.15;;
5414;SDS011;2730;51.512;7.504;2024-01-30T10:44:33;6.00;;;3.20;;
5414;SDS011;2730;51.512;7.504;2024-01-30T10:47:11;6.82;;;2.83;;
5414;SDS011;2730;51.512;7.504;2024-01-30T10:49:39;3.50;;;2.50;;
5414;SDS011;2730;51.512;7.504;2024-01-30T10:52:11;3.80;;;3.05;;
5414;SDS011;2730;51.512;7.504;2024-01-30T10:54:41;5.63;;;3.13;;
5414;SDS011;2730;51.512;7.504;2024-01-30T10:57:10;7.85;;;2.95;;
5414;SDS011;2730;51.512;7.504;2024-01-30T10:59:38;5.10;;;3.38;;
5414;SDS011;2730;51.512;7.504;2024-01-30T11:02:06;5.10;;;3.35;;
5414;SDS011;2730;51.512;7.504;2024-01-30T11:04:36;3.38;;;3.10;;
5414;SDS011;2730;51.512;7.504;2024-01-30T11:07:13;8.68;;;3.25;;
5414;SDS011;2730;51.512;7.504;2024-01-30T11:09:49;5.13;;;3.30;;
5414;SDS011;2730;51.512;7.504;2024-01-30T11:12:21;3.45;;;3.15;;
5414;SDS011;2730;51.512;7.504;2024-01-30T11:14:50;4.45;;;2.90;;
5414;SDS011;2730;51.512;7.504;2024-01-30T11:17:38;3.63;;;3.33;;
5414;SDS011;2730;51.512;7.504;2024-01-30T11:20:11;5.18;;;3.58;;
5414;SDS011;2730;51.512;7.504;2024-01-30T11:22:41;4.57;;;3.33;;
5414;SDS011;2730;51.512;7.504;2024-01-30T11:25:14;4.28;;;2.90;;
5414;SDS011;2730;51.512;7.504;2024-01-30T11:27:42;6.35;;;3.45;;
5414;SDS011;2730;51.512;7.504;2024-01-30T11:30:09;6.18;;;3.28;;
5414;SDS011;2730;51.512;7.504;2024-01-30T11:32:36;5.18;;;2.88;;
5414;SDS011;2730;51.512;7.504;2024-01-30T11:35:04;5.50;;;2.88;;
5414;SDS011;2730;51.512;7.504;2024-01-30T11:37:36;5.90;;;3.25;;
5414;SDS011;2730;51.512;7.504;2024-01-30T11:40:04;4.43;;;3.22;;
5414;SDS011;2730;51.512;7.504;2024-01-30T11:42:33;8.45;;;3.90;;
5414;SDS011;2730;51.512;7.504;2024-01-30T11:45:04;6.65;;;3.78;;
5414;SDS011;2730;51.512;7.504;2024-01-30T11:47:31;4.53;;;2.75;;
5414;SDS011;2730;51.512;7.504;2024-01-30T11:50:00;3.50;;;2.70;;
5414;SDS011;2730;51.512;7.504;2024-01-30T11:52:28;4.57;;;3.80;;
5414;SDS011;2730;51.512;7.504;2024-01-30T11:54:55;8.70;;;3.53;;
5414;SDS011;2730;51.512;7.504;2024-01-30T11:57:22;8.50;;;3.63;;
5414;SDS011;2730;51.512;7.504;2024-01-30T11:59:50;5.25;;;3.13;;
5414;SDS011;2730;51.512;7.504;2024-01-30T12:02:17;5.35;;;3.13;;
5414;SDS011;2730;51.512;7.504;2024-01-30T12:04:45;5.63;;;2.90;;
5414;SDS011;2730;51.512;7.504;2024-01-30T12:07:13;5.22;;;3.00;;
5414;SDS011;2730;51.512;7.504;2024-01-30T12:09:42;6.35;;;3.95;;
5414;SDS011;2730;51.512;7.504;2024-01-30T12:12:08;5.30;;;3.20;;
5414;SDS011;2730;51.512;7.504;2024-01-30T12:14:37;7.10;;;3.85;;
5414;SDS011;2730;51.512;7.504;2024-01-30T12:17:07;3.05;;;2.63;;
5414;SDS011;2730;51.512;7.504;2024-01-30T12:19:34;10.57;;;3.75;;
5414;SDS011;2730;51.512;7.504;2024-01-30T12:22:01;7.65;;;3.28;;
5414;SDS011;2730;51.512;7.504;2024-01-30T12:24:28;15.05;;;5.60;;
5414;SDS011;2730;51.512;7.504;2024-01-30T12:26:56;8.65;;;2.92;;
5414;SDS011;2730;51.512;7.504;2024-01-30T12:29:25;11.07;;;3.80;;
5414;SDS011;2730;51.512;7.504;2024-01-30T12:31:52;8.45;;;3.35;;
5414;SDS011;2730;51.512;7.504;2024-01-30T12:34:22;5.28;;;3.00;;
5414;SDS011;2730;51.512;7.504;2024-01-30T12:36:51;6.57;;;3.13;;
5414;SDS011;2730;51.512;7.504;2024-01-30T12:39:18;6.68;;;3.38;;
5414;SDS011;2730;51.512;7.504;2024-01-30T12:41:47;9.15;;;3.05;;
5414;SDS011;2730;51.512;7.504;2024-01-30T12:44:13;5.53;;;3.53;;
5414;SDS011;2730;51.512;7.504;2024-01-30T12:46:41;9.65;;;3.65;;
5414;SDS011;2730;51.512;7.504;2024-01-30T12:49:13;4.38;;;3.80;;
5414;SDS011;2730;51.512;7.504;2024-01-30T12:51:52;10.18;;;3.13;;
5414;SDS011;2730;51.512;7.504;2024-01-30T12:54:30;3.80;;;3.17;;
5414;SDS011;2730;51.512;7.504;2024-01-30T12:57:00;6.53;;;4.45;;
5414;SDS011;2730;51.512;7.504;2024-01-30T12:59:30;7.72;;;4.00;;
5414;SDS011;2730;51.512;7.504;2024-01-30T13:01:59;10.55;;;4.32;;
5414;SDS011;2730;51.512;7.504;2024-01-30T13:04:28;8.70;;;3.88;;
5414;SDS011;2730;51.512;7.504;2024-01-30T13:06:59;7.60;;;4.30;;
5414;SDS011;2730;51.512;7.504;2024-01-30T13:09:26;16.98;;;5.10;;
5414;SDS011;2730;51.512;7.504;2024-01-30T13:11:53;13.38;;;5.57;;
5414;SDS011;2730;51.512;7.504;2024-01-30T13:14:20;10.23;;;4.72;;
5414;SDS011;2730;51.512;7.504;2024-01-30T13:16:47;8.65;;;4.45;;
5414;SDS011;2730;51.512;7.504;2024-01-30T13:19:13;5.53;;;3.70;;
5414;SDS011;2730;51.512;7.504;2024-01-30T13:21:41;6.38;;;3.45;;
5414;SDS011;2730;51.512;7.504;2024-01-30T13:24:09;5.25;;;3.33;;
5414;SDS011;2730;51.512;7.504;2024-01-30T13:26:39;4.68;;;3.80;;
5414;SDS011;2730;51.512;7.504;2024-01-30T13:29:10;7.38;;;3.70;;
5414;SDS011;2730;51.512;7.504;2024-01-30T13:31:37;5.80;;;3.75;;
5414;SDS011;2730;51.512;7.504;2024-01-30T13:34:04;12.10;;;4.25;;
5414;SDS011;2730;51.512;7.504;2024-01-30T13:36:35;11.45;;;4.00;;
5414;SDS011;2730;51.512;7.504;2024-01-30T13:39:02;6.95;;;4.00;;
5414;SDS011;2730;51.512;7.504;2024-01-30T13:41:35;14.68;;;4.50;;
5414;SDS011;2730;51.512;7.504;2024-01-30T13:44:05;5.78;;;3.13;;
5414;SDS011;2730;51.512;7.504;2024-01-30T13:46:32;6.70;;;4.60;;
5414;SDS011;2730;51.512;7.504;2024-01-30T13:49:01;9.98;;;3.90;;
5414;SDS011;2730;51.512;7.504;2024-01-30T13:51:29;6.65;;;3.70;;
5414;SDS011;2730;51.512;7.504;2024-01-30T13:53:56;11.82;;;4.07;;
5414;SDS011;2730;51.512;7.504;2024-01-30T13:56:23;11.25;;;4.22;;
5414;SDS011;2730;51.512;7.504;2024-01-30T13:58:53;8.85;;;4.10;;
5414;SDS011;2730;51.512;7.504;2024-01-30T14:01:20;5.47;;;4.13;;
5414;SDS011;2730;51.512;7.504;2024-01-30T14:03:47;12.65;;;4.10;;
5414;SDS011;2730;51.512;7.504;2024-01-30T14:06:15;11.60;;;4.60;;
5414;SDS011;2730;51.512;7.504;2024-01-30T14:08:42;11.98;;;4.78;;
5414;SDS011;2730;51.512;7.504;2024-01-30T14:11:09;7.45;;;4.47;;
5414;SDS011;2730;51.512;7.504;2024-01-30T14:13:36;7.47;;;4.22;;
5414;SDS011;2730;51.512;7.504;2024-01-30T14:16:06;8.07;;;5.07;;
5414;SDS011;2730;51.512;7.504;2024-01-30T14:18:33;7.22;;;5.00;;
5414;SDS011;2730;51.512;7.504;2024-01-30T14:21:00;7.30;;;4.50;;
5414;SDS011;2730;51.512;7.504;2024-01-30T14:23:27;6.68;;;4.95;;
5414;SDS011;2730;51.512;7.504;2024-01-30T14:25:54;6.32;;;4.18;;
5414;SDS011;2730;51.512;7.504;2024-01-30T14:28:21;9.85;;;3.75;;
5414;SDS011;2730;51.512;7.504;2024-01-30T14:30:48;7.00;;;4.10;;
5414;SDS011;2730;51.512;7.504;2024-01-30T14:33:20;6.93;;;4.07;;
5414;SDS011;2730;51.512;7.504;2024-01-30T14:35:47;5.97;;;4.35;;
5414;SDS011;2730;51.512;7.504;2024-01-30T14:38:14;12.07;;;4.90;;
5414;SDS011;2730;51.512;7.504;2024-01-30T14:40:41;9.18;;;4.80;;
5414;SDS011;2730;51.512;7.504;2024-01-30T14:43:08;17.33;;;4.00;;
5414;SDS011;2730;51.512;7.504;2024-01-30T14:45:35;8.85;;;3.90;;
5414;SDS011;2730;51.512;7.504;2024-01-30T14:48:02;7.00;;;4.28;;
5414;SDS011;2730;51.512;7.504;2024-01-30T14:50:32;10.15;;;4.40;;
5414;SDS011;2730;51.512;7.504;2024-01-30T14:52:59;5.85;;;3.80;;
5414;SDS011;2730;51.512;7.504;2024-01-30T14:55:26;6.82;;;4.55;;
5414;SDS011;2730;51.512;7.504;2024-01-30T14:57:53;7.40;;;4.93;;
5414;SDS011;2730;51.512;7.504;2024-01-30T15:00:20;9.15;;;4.50;;
5414;SDS011;2730;51.512;7.504;2024-01-30T15:02:47;6.95;;;3.72;;
5414;SDS011;2730;51.512;7.504;2024-01-30T15:05:15;6.05;;;4.35;;
5414;SDS011;2730;51.512;7.504;2024-01-30T15:07:43;12.95;;;4.28;;
5414;SDS011;2730;51.512;7.504;2024-01-30T15:10:09;8.05;;;4.20;;
5414;SDS011;2730;51.512;7.504;2024-01-30T15:12:36;7.30;;;3.95;;
5414;SDS011;2730;51.512;7.504;2024-01-30T15:15:03;6.90;;;4.25;;
5414;SDS011;2730;51.512;7.504;2024-01-30T15:17:31;11.05;;;4.55;;
5414;SDS011;2730;51.512;7.504;2024-01-30T15:19:58;7.13;;;4.95;;
5414;SDS011;2730;51.512;7.504;2024-01-30T15:22:25;7.18;;;4.70;;
5414;SDS011;2730;51.512;7.504;2024-01-30T15:24:54;8.48;;;5.00;;